YFSK weather

Fiskville Airport
Fiskville, Victoria, Australia

Public forecast

Using degrees Celsius for public forecast. Weather courtesy of forecast.io.

METAR (pilot weather report)

Closest report is Avalon Airport, 24.7 nm (45.7 km) SSE. Retrieved 2019/04/21 12:00 UTC (17 minutes ago):

YMAV 211200Z AUTO 26013KT 9999 // BKN095 OVC110 16/11 Q1022

TAF (pilot weather forecast)

Closest forecast is Avalon Airport, 24.7 nm (45.7 km) SSE. Retrieved 2019/04/21 12:00 UTC (17 minutes ago):

TAF YMAV 211110Z 2112/2212 24012KT 9999 -SHRA SCT015 BKN025 FM211600 22008KT 9999 -SHRA SCT010 BKN020 FM212200 22008KT 9999 FEW020 BKN030 FM220200 15012KT 9999 FEW025 BKN035 FM220700 15007KT 9999 SCT030 INTER 2116/2120 5000 SHRA BKN010